0NK9 weather

Lakeview Airport
Chittenango, New York, United States

Public forecast

Using degrees Fahrenheit for public forecast. Weather courtesy of forecast.io.

Closest aviation weather report (METAR) to Lakeview Airport

Closest report is Syracuse Hancock International Airport, 13.7 nm (25.3 km) WNW. Retrieved 2019/10/17 06:38 UTC (0 seconds ago):

KSYR 170638Z 26011KT 10SM BKN013 BKN085 OVC190 09/07 A2935 RMK AO2 T00890072

Closest aviation forecast (TAF) to Lakeview Airport

Closest forecast is Syracuse Hancock International Airport, 13.7 nm (25.3 km) WNW. Retrieved 2019/10/17 06:22 UTC (7 minutes ago):

TAF KSYR 170520Z 1706/1806 27006KT P6SM OVC035 TEMPO 1708/1710 4SM -RA OVC025 FM171000 29010G20KT 4SM BR OVC025 FM171300 29015G25KT 3SM SHRA OVC015